Time;durP1;ratioP1;P1;durP2;ratioP2;P2;SDS_P1;SDS_P2;PMS_P1;PMS_P2;Temp;Humidity;BMP_temperature;BMP_pressure;BME280_temperature;BME280_humidity;BME280_pressure;Samples;Min_cycle;Max_cycle;Signal;HPM_P1;HPM_P2
2022/07/25 00:01:03;;;;;;;;;;;;;;;21.25;29.59;97699.31;4824148;29;1110;-80
2022/07/25 00:03:28;;;;;;;;;;;;;;;21.51;29.32;97696.56;4824512;29;1106;-80
2022/07/25 00:05:54;;;;;;;;;;;;;;;21.51;29.24;97705.06;4824145;29;1951;-80
2022/07/25 00:08:19;;;;;;;;;;;;;;;21.68;29.25;97706.53;4824214;29;1080;-80
2022/07/25 00:10:44;;;;;;;;;;;;;;;21.45;29.37;97712.50;4824410;29;1012;-81
2022/07/25 00:13:10;;;;;;;;;;;;;;;21.39;29.75;97719.97;4838418;29;986;-80
2022/07/25 00:15:35;;;;;;;;;;;;;;;21.31;29.99;97720.19;4846217;29;1067;-79
2022/07/25 00:18:01;;;;;;;;;;;;;;;21.47;29.72;97715.69;4845711;29;1085;-81
2022/07/25 00:20:26;;;;;;;;;;;;;;;21.43;29.51;97720.66;4845680;29;1008;-80
2022/07/25 00:22:51;;;;;;;;;;;;;;;21.28;29.83;97721.03;4860796;29;966;-81
2022/07/25 00:25:17;;;;;;;;;;;;;;;21.49;29.36;97716.81;4864447;29;1911;-81
2022/07/25 00:27:42;;;;;;;;;;;;;;;21.31;29.62;97714.53;4866202;29;928;-80
2022/07/25 00:30:08;;;;;;;;;;;;;;;21.37;29.84;97719.63;4866605;29;1024;-81
2022/07/25 00:32:34;;;;;;;;;;;;;;;21.42;29.41;97719.06;4866261;29;986;-79
2022/07/25 00:34:59;;;;;;;;;;;;;;;21.56;29.50;97718.66;4866049;29;1242;-79
2022/07/25 00:37:24;;;;;;;;;;;;;;;21.33;29.62;97728.22;4863841;29;1040;-81
2022/07/25 00:39:50;;;;;;;;;;;;;;;21.37;29.83;97739.44;4864086;29;1085;-80
2022/07/25 00:42:15;;;;;;;;;;;;;;;21.41;29.70;97757.13;4863951;29;1309;-80
2022/07/25 00:44:41;;;;;;;;;;;;;;;21.42;29.48;97801.94;4863920;29;1911;-80
2022/07/25 00:47:06;;;;;;;;;;;;;;;21.52;29.30;97848.97;4863979;29;954;-80
2022/07/25 00:49:32;;;;;;;;;;;;;;;21.64;29.31;97889.09;4863939;29;1026;-80
2022/07/25 00:51:57;;;;;;;;;;;;;;;21.40;29.59;97882.88;4826841;29;926;-81
2022/07/25 00:54:23;;;;;;;;;;;;;;;21.28;30.11;97851.22;4808711;29;988;-80
2022/07/25 00:56:49;;;;;;;;;;;;;;;21.21;30.29;97817.47;4808412;29;1077;-81
2022/07/25 00:59:15;;;;;;;;;;;;;;;21.26;29.98;97852.91;4808662;29;967;-79
2022/07/25 01:01:41;;;;;;;;;;;;;;;21.25;30.31;97897.41;4808623;29;941;-80
2022/07/25 01:04:07;;;;;;;;;;;;;;;21.32;30.05;97897.22;4790255;29;1986;-80
2022/07/25 01:06:32;;;;;;;;;;;;;;;21.28;30.09;97856.88;4775850;29;1060;-81
2022/07/25 01:08:58;;;;;;;;;;;;;;;21.15;30.45;97822.09;4772184;30;1309;-80
2022/07/25 01:11:23;;;;;;;;;;;;;;;21.12;30.48;97834.28;4772425;30;1155;-81
2022/07/25 01:13:49;;;;;;;;;;;;;;;21.33;30.49;97859.19;4772176;30;1050;-80
2022/07/25 01:16:14;;;;;;;;;;;;;;;21.51;30.18;97870.03;4772638;30;944;-81
2022/07/25 01:18:40;;;;;;;;;;;;;;;21.39;30.48;97855.81;4772368;30;1007;-81
2022/07/25 01:21:06;;;;;;;;;;;;;;;21.18;31.08;97852.31;4772371;30;992;-80
2022/07/25 01:23:31;;;;;;;;;;;;;;;21.44;30.84;97849.59;4757303;30;1030;-78
2022/07/25 01:25:57;;;;;;;;;;;;;;;21.64;30.49;97844.56;4771622;30;1980;-80
2022/07/25 01:28:22;;;;;;;;;;;;;;;21.55;30.85;97838.78;4772356;30;1131;-78
2022/07/25 01:30:48;;;;;;;;;;;;;;;21.43;31.03;97845.19;4772377;30;960;-80
2022/07/25 01:33:16;;;;;;;;;;;;;;;21.35;31.26;97821.16;4772400;30;933;-80
2022/07/25 01:35:42;;;;;;;;;;;;;;;21.42;30.79;97815.31;4810625;29;1246;-81
2022/07/25 01:38:07;;;;;;;;;;;;;;;21.36;31.07;97822.75;4844248;29;975;-81
2022/07/25 01:40:33;;;;;;;;;;;;;;;21.34;31.07;97803.38;4859755;29;948;-80
2022/07/25 01:42:58;;;;;;;;;;;;;;;21.59;30.76;97791.34;4864725;29;964;-80
2022/07/25 01:45:24;;;;;;;;;;;;;;;21.56;30.43;97797.91;4864665;29;1911;-78
2022/07/25 01:47:49;;;;;;;;;;;;;;;21.49;30.83;97787.56;4864711;29;932;-80
2022/07/25 01:50:15;;;;;;;;;;;;;;;21.29;31.04;97784.88;4864865;29;999;-80
2022/07/25 01:52:40;;;;;;;;;;;;;;;21.48;30.76;97777.50;4864873;29;990;-79
2022/07/25 01:55:06;;;;;;;;;;;;;;;21.58;30.72;97781.25;4862385;29;922;-80
2022/07/25 01:57:31;;;;;;;;;;;;;;;21.51;30.98;97778.66;4862231;29;1023;-81
2022/07/25 01:59:57;;;;;;;;;;;;;;;21.44;31.15;97765.47;4862487;29;942;-80
2022/07/25 02:02:22;;;;;;;;;;;;;;;21.67;30.74;97764.41;4862520;29;1022;-81
2022/07/25 02:04:48;;;;;;;;;;;;;;;21.55;31.14;97773.66;4862328;29;1954;-80
2022/07/25 02:07:13;;;;;;;;;;;;;;;21.42;31.46;97759.50;4862304;29;1010;-81
2022/07/25 02:09:40;;;;;;;;;;;;;;;21.52;31.12;97754.75;4862115;29;997;-81
2022/07/25 02:12:06;;;;;;;;;;;;;;;21.52;31.39;97746.25;4862454;29;1065;-79
2022/07/25 02:14:31;;;;;;;;;;;;;;;21.32;31.75;97749.28;4862339;29;998;-78
2022/07/25 02:16:57;;;;;;;;;;;;;;;21.69;30.87;97744.91;4862035;29;1026;-79
2022/07/25 02:19:22;;;;;;;;;;;;;;;21.45;31.54;97741.63;4846940;29;1015;-80
2022/07/25 02:21:48;;;;;;;;;;;;;;;21.35;31.36;97736.25;4862016;29;974;-80
2022/07/25 02:24:13;;;;;;;;;;;;;;;21.44;31.30;97740.00;4862276;29;1974;-80
2022/07/25 02:26:39;;;;;;;;;;;;;;;21.59;31.08;97744.00;4863872;29;993;-80
2022/07/25 02:29:04;;;;;;;;;;;;;;;21.62;31.18;97742.31;4864397;29;1031;-80
2022/07/25 02:31:30;;;;;;;;;;;;;;;21.65;30.99;97732.91;4864307;29;931;-80
2022/07/25 02:33:55;;;;;;;;;;;;;;;21.64;30.70;97727.69;4863756;29;1160;-79
2022/07/25 02:36:21;;;;;;;;;;;;;;;21.59;31.02;97717.72;4861381;29;1082;-80
2022/07/25 02:38:46;;;;;;;;;;;;;;;21.73;30.75;97705.97;4861642;29;1012;-80
2022/07/25 02:41:11;;;;;;;;;;;;;;;21.44;31.22;97705.25;4861850;29;1060;-80
2022/07/25 02:43:37;;;;;;;;;;;;;;;21.64;30.97;97703.00;4861668;29;1013;-80
2022/07/25 02:46:02;;;;;;;;;;;;;;;21.39;31.43;97695.28;4861822;29;1988;-80
2022/07/25 02:48:28;;;;;;;;;;;;;;;21.46;31.45;97691.47;4861800;29;1026;-81
2022/07/25 02:50:53;;;;;;;;;;;;;;;21.49;31.30;97696.19;4861894;29;993;-80
2022/07/25 02:53:19;;;;;;;;;;;;;;;21.64;31.41;97686.00;4861449;29;1030;-81
2022/07/25 02:55:44;;;;;;;;;;;;;;;21.52;31.59;97698.94;4861833;29;1077;-80
2022/07/25 02:58:10;;;;;;;;;;;;;;;21.46;31.88;97691.47;4861510;29;1146;-81
2022/07/25 03:00:35;;;;;;;;;;;;;;;21.63;31.11;97694.97;4843139;29;963;-80
2022/07/25 03:03:01;;;;;;;;;;;;;;;21.58;31.36;97682.16;4842964;29;990;-79
2022/07/25 03:05:27;;;;;;;;;;;;;;;21.39;31.81;97692.44;4843055;29;1919;-80
2022/07/25 03:07:52;;;;;;;;;;;;;;;21.59;31.39;97673.22;4812791;29;975;-79
2022/07/25 03:10:17;;;;;;;;;;;;;;;21.57;31.79;97670.06;4842806;29;1107;-80
2022/07/25 03:12:43;;;;;;;;;;;;;;;21.66;31.56;97669.38;4843111;29;928;-80
2022/07/25 03:15:09;;;;;;;;;;;;;;;21.50;31.93;97666.63;4843313;29;1107;-80
2022/07/25 03:17:34;;;;;;;;;;;;;;;21.76;31.52;97659.75;4842620;29;1022;-79
2022/07/25 03:20:00;;;;;;;;;;;;;;;21.62;31.63;97654.53;4842617;29;1043;-80
2022/07/25 03:22:25;;;;;;;;;;;;;;;21.68;31.74;97661.22;4843076;29;980;-80
2022/07/25 03:24:52;;;;;;;;;;;;;;;21.65;31.84;97659.28;4812389;29;2008;-81
2022/07/25 03:27:17;;;;;;;;;;;;;;;21.64;31.77;97652.03;4842615;29;1009;-80
2022/07/25 03:29:43;;;;;;;;;;;;;;;21.77;31.51;97643.56;4842602;29;1105;-80
2022/07/25 03:32:08;;;;;;;;;;;;;;;21.56;31.89;97645.03;4870055;29;1054;-80
2022/07/25 03:34:34;;;;;;;;;;;;;;;21.43;32.28;97641.41;4879989;29;963;-81
2022/07/25 03:37:00;;;;;;;;;;;;;;;21.62;31.89;97648.88;4879722;29;1333;-81
2022/07/25 03:39:26;;;;;;;;;;;;;;;21.53;32.07;97648.75;4879864;29;1000;-81
2022/07/25 03:41:51;;;;;;;;;;;;;;;21.76;31.72;97651.25;4879727;29;1087;-81
2022/07/25 03:44:18;;;;;;;;;;;;;;;21.84;31.38;97649.75;4876045;29;1973;-81
2022/07/25 03:46:43;;;;;;;;;;;;;;;21.73;31.66;97642.88;4832317;29;1644;-80
2022/07/25 03:49:08;;;;;;;;;;;;;;;21.75;31.43;97635.50;4882147;29;991;-80
2022/07/25 03:51:34;;;;;;;;;;;;;;;21.64;31.87;97635.06;4883365;29;1094;-81
2022/07/25 03:54:02;;;;;;;;;;;;;;;21.81;31.61;97628.03;4881468;29;1171;-80
2022/07/25 03:56:48;;;;;;;;;;;;;;;21.71;32.16;97620.69;4864604;29;944;-80
2022/07/25 03:59:14;;;;;;;;;;;;;;;21.53;32.26;97628.94;4864646;29;1245;-80
2022/07/25 04:01:39;;;;;;;;;;;;;;;21.79;32.16;97629.72;4863864;29;1836;-80
2022/07/25 04:04:05;;;;;;;;;;;;;;;21.70;32.11;97644.56;4864455;29;1911;-80
2022/07/25 04:06:30;;;;;;;;;;;;;;;21.69;31.99;97648.63;4864377;29;935;-79
2022/07/25 04:08:57;;;;;;;;;;;;;;;21.67;32.21;97653.97;4864331;29;1092;-80
2022/07/25 04:11:22;;;;;;;;;;;;;;;21.67;31.99;97651.13;4864458;29;999;-80
2022/07/25 04:13:48;;;;;;;;;;;;;;;21.54;32.37;97658.84;4864144;29;994;-80
2022/07/25 04:16:13;;;;;;;;;;;;;;;21.67;32.14;97662.47;4863604;29;1505;-80
2022/07/25 04:18:38;;;;;;;;;;;;;;;21.75;31.85;97669.47;4827272;29;1019;-81
2022/07/25 04:21:04;;;;;;;;;;;;;;;21.79;31.92;97680.69;4827280;29;958;-80
2022/07/25 04:23:32;;;;;;;;;;;;;;;21.71;32.11;97671.66;4843171;29;1593;-81
2022/07/25 04:25:57;;;;;;;;;;;;;;;21.75;31.99;97677.97;4845262;29;1907;-79
2022/07/25 04:28:23;;;;;;;;;;;;;;;21.72;31.78;97681.72;4845553;29;935;-80
2022/07/25 04:30:49;;;;;;;;;;;;;;;21.54;32.33;97689.97;4845802;29;1067;-80
2022/07/25 04:33:14;;;;;;;;;;;;;;;21.73;31.70;97688.97;4829312;29;1465;-80
2022/07/25 04:35:40;;;;;;;;;;;;;;;21.87;31.71;97693.38;4845379;29;1097;-80
2022/07/25 04:38:05;;;;;;;;;;;;;;;21.71;31.72;97680.13;4845457;29;1017;-80
2022/07/25 04:40:31;;;;;;;;;;;;;;;21.83;31.35;97685.00;4845582;29;948;-80
2022/07/25 04:42:56;;;;;;;;;;;;;;;21.61;31.96;97695.44;4844740;29;1450;-80
2022/07/25 04:45:22;;;;;;;;;;;;;;;21.81;31.60;97696.00;4808543;29;1982;-80
2022/07/25 04:47:47;;;;;;;;;;;;;;;21.74;31.37;97699.03;4808614;29;1093;-79
2022/07/25 04:50:13;;;;;;;;;;;;;;;21.68;31.63;97703.69;4808659;29;1444;-78
2022/07/25 04:52:39;;;;;;;;;;;;;;;21.72;31.37;97698.72;4793369;29;1271;-80
2022/07/25 04:55:04;;;;;;;;;;;;;;;21.82;31.25;97711.75;4796689;29;960;-78
2022/07/25 04:57:30;;;;;;;;;;;;;;;21.75;31.10;97723.28;4845179;29;1048;-80
2022/07/25 04:59:57;;;;;;;;;;;;;;;21.80;30.80;97728.38;4842304;29;1516;-80
2022/07/25 05:02:23;;;;;;;;;;;;;;;21.63;31.21;97746.72;4826173;29;1052;-81
2022/07/25 05:04:48;;;;;;;;;;;;;;;21.65;30.89;97749.88;4825231;29;2063;-80
2022/07/25 05:07:14;;;;;;;;;;;;;;;21.57;31.12;97754.19;4826491;29;1701;-80
2022/07/25 05:09:39;;;;;;;;;;;;;;;21.72;31.00;97755.34;4822984;29;1743;-80
2022/07/25 05:12:05;;;;;;;;;;;;;;;21.76;30.81;97772.22;4808297;29;998;-80
2022/07/25 05:14:30;;;;;;;;;;;;;;;21.92;30.59;97768.50;4808538;29;996;-80
2022/07/25 05:16:55;;;;;;;;;;;;;;;21.73;31.23;97773.13;4835285;29;955;-80
2022/07/25 05:19:21;;;;;;;;;;;;;;;21.53;31.39;97781.81;4844831;29;943;-80
2022/07/25 05:21:46;;;;;;;;;;;;;;;21.56;31.37;97798.69;4857370;29;1552;-81
2022/07/25 05:24:12;;;;;;;;;;;;;;;21.77;30.85;97807.81;4863168;29;1982;-81
2022/07/25 05:26:38;;;;;;;;;;;;;;;21.74;31.10;97815.16;4863088;29;1012;-80
2022/07/25 05:29:03;;;;;;;;;;;;;;;21.75;30.87;97804.59;4863257;29;966;-81
2022/07/25 05:31:29;;;;;;;;;;;;;;;21.82;30.45;97813.69;4862819;29;1010;-80
2022/07/25 05:33:54;;;;;;;;;;;;;;;21.74;30.51;97817.97;4860821;29;1081;-80
2022/07/25 05:36:19;;;;;;;;;;;;;;;21.55;31.06;97813.28;4884196;29;1119;-80
2022/07/25 05:38:45;;;;;;;;;;;;;;;21.75;30.71;97822.41;4881955;29;1537;-77
2022/07/25 05:41:10;;;;;;;;;;;;;;;21.84;30.48;97807.56;4883463;29;1809;-80
2022/07/25 05:43:36;;;;;;;;;;;;;;;21.83;30.26;97823.00;4883489;29;1094;-79
2022/07/25 05:46:04;;;;;;;;;;;;;;;21.90;30.02;97827.63;4883223;29;1976;-80
2022/07/25 05:48:29;;;;;;;;;;;;;;;21.72;30.42;97826.16;4883686;29;996;-80
2022/07/25 05:50:56;;;;;;;;;;;;;;;21.61;30.19;97827.72;4883942;29;902;-80
2022/07/25 05:53:21;;;;;;;;;;;;;;;21.77;30.27;97831.25;4883442;29;958;-80
2022/07/25 05:55:47;;;;;;;;;;;;;;;21.49;30.27;97820.75;4870374;29;847;-80
2022/07/25 05:58:12;;;;;;;;;;;;;;;21.57;30.10;97814.44;4877436;29;1545;-80
2022/07/25 06:00:38;;;;;;;;;;;;;;;21.74;29.70;97815.16;4883692;29;937;-80
2022/07/25 06:03:03;;;;;;;;;;;;;;;21.66;29.70;97810.97;4883552;29;925;-80
2022/07/25 06:05:29;;;;;;;;;;;;;;;21.67;29.71;97804.03;4862328;29;1907;-80
2022/07/25 06:07:54;;;;;;;;;;;;;;;21.38;30.42;97808.94;4862303;29;977;-81
2022/07/25 06:10:20;;;;;;;;;;;;;;;21.42;30.36;97810.44;4860090;29;1820;-80
2022/07/25 06:12:45;;;;;;;;;;;;;;;21.77;29.81;97810.63;4862555;29;1022;-80
2022/07/25 06:15:11;;;;;;;;;;;;;;;21.70;29.74;97817.28;4862203;29;954;-79
2022/07/25 06:17:36;;;;;;;;;;;;;;;21.68;29.90;97822.63;4862603;29;992;-80
2022/07/25 06:20:02;;;;;;;;;;;;;;;21.58;29.90;97824.53;4861064;29;1378;-80
2022/07/25 06:22:28;;;;;;;;;;;;;;;21.39;30.13;97816.97;4862322;29;960;-79
2022/07/25 06:24:54;;;;;;;;;;;;;;;21.50;30.25;97811.00;4846738;29;1916;-80
2022/07/25 06:27:19;;;;;;;;;;;;;;;21.54;30.11;97820.19;4862018;29;1047;-80
2022/07/25 06:29:45;;;;;;;;;;;;;;;21.62;29.86;97818.75;4861871;29;988;-80
2022/07/25 06:32:10;;;;;;;;;;;;;;;21.56;30.02;97814.91;4831513;29;963;-80
2022/07/25 06:34:36;;;;;;;;;;;;;;;21.61;30.10;97800.19;4861132;29;1558;-80
2022/07/25 06:37:01;;;;;;;;;;;;;;;21.62;30.11;97804.59;4863377;29;1045;-80
2022/07/25 06:39:27;;;;;;;;;;;;;;;21.60;29.95;97809.91;4863068;29;1663;-80
2022/07/25 06:41:52;;;;;;;;;;;;;;;21.56;30.36;97812.06;4864187;29;1857;-80
2022/07/25 06:44:18;;;;;;;;;;;;;;;21.47;30.74;97826.06;4864057;29;1974;-80
2022/07/25 06:46:43;;;;;;;;;;;;;;;21.54;30.45;97818.16;4851174;29;1638;-79
2022/07/25 06:49:09;;;;;;;;;;;;;;;21.64;30.49;97810.59;4845506;29;905;-81
2022/07/25 06:51:34;;;;;;;;;;;;;;;21.74;30.41;97825.69;4847935;29;999;-80
2022/07/25 06:53:59;;;;;;;;;;;;;;;21.51;30.72;97823.94;4863760;29;964;-80
2022/07/25 06:56:29;;;;;;;;;;;;;;;21.61;30.71;97822.06;4863967;29;929;-80
2022/07/25 06:58:55;;;;;;;;;;;;;;;21.65;30.47;97817.06;4863893;29;1066;-80
2022/07/25 07:01:20;;;;;;;;;;;;;;;21.55;30.64;97813.28;4862587;29;1452;-80
2022/07/25 07:03:46;;;;;;;;;;;;;;;21.61;31.03;97820.00;4861671;29;1642;-80
2022/07/25 07:06:11;;;;;;;;;;;;;;;21.76;30.47;97811.84;4863207;29;1910;-81
2022/07/25 07:08:37;;;;;;;;;;;;;;;21.72;30.57;97811.19;4863518;29;1496;-81
2022/07/25 07:11:02;;;;;;;;;;;;;;;21.68;30.83;97821.81;4861419;29;959;-80
2022/07/25 07:13:28;;;;;;;;;;;;;;;21.74;30.97;97815.16;4865768;29;996;-79
2022/07/25 07:15:54;;;;;;;;;;;;;;;21.74;30.93;97825.69;4869674;29;1351;-80
2022/07/25 07:18:20;;;;;;;;;;;;;;;21.72;30.95;97828.97;4863680;29;957;-80
2022/07/25 07:20:46;;;;;;;;;;;;;;;21.88;30.94;97824.47;4863734;29;970;-79
2022/07/25 07:23:11;;;;;;;;;;;;;;;21.69;31.10;97829.06;4862614;29;914;-80
2022/07/25 07:25:37;;;;;;;;;;;;;;;21.67;31.00;97832.38;4863423;29;1915;-80
2022/07/25 07:28:02;;;;;;;;;;;;;;;21.78;30.96;97838.50;4862875;29;1477;-80
2022/07/25 07:30:28;;;;;;;;;;;;;;;21.72;31.00;97840.31;4863315;29;1210;-80
2022/07/25 07:32:53;;;;;;;;;;;;;;;21.81;31.05;97843.28;4844501;29;1596;-80
2022/07/25 07:35:19;;;;;;;;;;;;;;;21.51;31.58;97838.09;4867313;29;1700;-80
2022/07/25 07:37:44;;;;;;;;;;;;;;;21.75;31.12;97839.38;4874926;29;1668;-80
2022/07/25 07:40:10;;;;;;;;;;;;;;;21.50;31.49;97833.66;4883378;29;1065;-80
2022/07/25 07:42:37;;;;;;;;;;;;;;;21.66;31.04;97839.28;4859573;29;1727;-79
2022/07/25 07:45:02;;;;;;;;;;;;;;;21.59;31.07;97843.09;4830308;29;1990;-80
2022/07/25 07:47:28;;;;;;;;;;;;;;;21.75;31.04;97845.06;4861250;29;1007;-80
2022/07/25 07:49:53;;;;;;;;;;;;;;;21.50;31.36;97830.81;4842264;29;1806;-80
2022/07/25 07:52:18;;;;;;;;;;;;;;;21.65;31.32;97840.50;4842710;29;928;-80
2022/07/25 07:57:28;;;;;;;;;;;;;;;21.69;31.10;97846.06;4842353;29;1002;-78
2022/07/25 07:59:53;;;;;;;;;;;;;;;21.59;31.12;97848.75;4842913;29;1017;-80
2022/07/25 08:02:19;;;;;;;;;;;;;;;21.61;31.16;97845.50;4787779;30;1575;-80
2022/07/25 08:04:44;;;;;;;;;;;;;;;21.62;31.23;97847.06;4788080;30;1908;-80
2022/07/25 08:07:10;;;;;;;;;;;;;;;21.77;31.17;97853.13;4769809;30;1036;-81
2022/07/25 08:09:35;;;;;;;;;;;;;;;21.75;30.87;97850.72;4734620;30;1047;-80
2022/07/25 08:12:00;;;;;;;;;;;;;;;21.77;30.84;97848.25;4734731;30;1029;-79
2022/07/25 08:14:26;;;;;;;;;;;;;;;21.74;30.83;97860.47;4743561;30;942;-80
2022/07/25 08:16:51;;;;;;;;;;;;;;;21.66;31.28;97856.25;4752098;30;1429;-80
2022/07/25 08:19:17;;;;;;;;;;;;;;;21.62;31.20;97863.28;4752329;30;1063;-79
2022/07/25 08:21:42;;;;;;;;;;;;;;;21.76;31.05;97863.66;4766123;30;1495;-79
2022/07/25 08:24:08;;;;;;;;;;;;;;;21.66;31.26;97866.78;4770125;30;1010;-79
2022/07/25 08:26:35;;;;;;;;;;;;;;;21.73;30.97;97869.41;4769989;30;2037;-79
2022/07/25 08:29:01;;;;;;;;;;;;;;;21.43;31.52;97873.50;4770025;30;959;-79
2022/07/25 08:31:27;;;;;;;;;;;;;;;21.72;31.46;97867.84;4769658;30;1390;-79
2022/07/25 08:33:52;;;;;;;;;;;;;;;21.50;31.76;97862.78;4809846;29;1624;-79
2022/07/25 08:36:18;;;;;;;;;;;;;;;21.65;31.20;97868.81;4826958;29;1408;-79
2022/07/25 08:38:44;;;;;;;;;;;;;;;21.81;31.17;97857.44;4827442;29;944;-79
2022/07/25 08:41:09;;;;;;;;;;;;;;;21.74;31.05;97865.34;4838803;29;983;-79
2022/07/25 08:43:36;;;;;;;;;;;;;;;21.59;31.55;97859.28;4863949;29;959;-79
2022/07/25 08:46:02;;;;;;;;;;;;;;;21.61;31.38;97865.31;4865495;29;1973;-79
2022/07/25 08:48:28;;;;;;;;;;;;;;;21.79;31.04;97851.41;4863280;29;1446;-79
2022/07/25 08:50:55;;;;;;;;;;;;;;;21.74;31.17;97860.47;4866023;29;901;-79
2022/07/25 08:53:21;;;;;;;;;;;;;;;21.57;31.26;97858.94;4865884;29;1152;-79
2022/07/25 08:55:46;;;;;;;;;;;;;;;21.69;31.27;97863.06;4865764;29;996;-79
2022/07/25 08:58:13;;;;;;;;;;;;;;;21.70;31.24;97862.59;4864527;29;1382;-78
2022/07/25 09:00:38;;;;;;;;;;;;;;;21.70;31.28;97865.44;4865807;29;899;-79
2022/07/25 09:03:05;;;;;;;;;;;;;;;21.69;31.47;97861.00;4865781;29;912;-79
2022/07/25 09:05:30;;;;;;;;;;;;;;;21.75;31.11;97859.22;4863742;29;1919;-79
2022/07/25 09:07:56;;;;;;;;;;;;;;;21.52;31.91;97863.13;4865818;29;934;-79
2022/07/25 09:10:23;;;;;;;;;;;;;;;21.74;31.38;97862.50;4865528;29;935;-79
2022/07/25 09:12:54;;;;;;;;;;;;;;;21.57;31.64;97865.41;4864722;29;1426;-78
2022/07/25 09:15:24;;;;;;;;;;;;;;;21.85;30.97;97866.59;4863351;29;1377;-80
2022/07/25 09:17:50;;;;;;;;;;;;;;;21.87;30.80;97873.88;4864144;29;922;-78
2022/07/25 09:20:15;;;;;;;;;;;;;;;21.70;31.34;97870.31;4865001;29;934;-79
2022/07/25 09:22:44;;;;;;;;;;;;;;;21.83;31.24;97866.25;4865556;29;982;-79
2022/07/25 09:25:22;;;;;;;;;;;;;;;21.66;31.46;97872.44;4864064;29;1968;-77
2022/07/25 09:27:48;;;;;;;;;;;;;;;21.93;31.05;97872.06;4865133;29;922;-79
2022/07/25 09:30:14;;;;;;;;;;;;;;;21.97;31.13;97873.56;4858575;29;1514;-78
2022/07/25 09:32:39;;;;;;;;;;;;;;;21.85;31.51;97866.59;4864713;29;1407;-79
2022/07/25 09:35:05;;;;;;;;;;;;;;;21.68;31.78;97873.59;4867265;29;1346;-79
2022/07/25 09:37:30;;;;;;;;;;;;;;;21.79;31.44;97862.75;4881813;29;1449;-79
2022/07/25 09:39:56;;;;;;;;;;;;;;;21.78;31.27;97864.00;4881419;29;1413;-79
2022/07/25 09:42:22;;;;;;;;;;;;;;;21.74;31.31;97871.78;4883501;29;959;-78
2022/07/25 09:45:04;;;;;;;;;;;;;;;21.71;31.61;97871.88;4881406;29;1919;-79
2022/07/25 09:47:30;;;;;;;;;;;;;;;21.76;31.44;97879.81;4864865;29;1548;-78
2022/07/25 09:49:56;;;;;;;;;;;;;;;21.75;31.16;97879.03;4883199;29;979;-79
2022/07/25 09:52:21;;;;;;;;;;;;;;;21.75;31.39;97876.19;4862334;29;956;-79
2022/07/25 09:54:47;;;;;;;;;;;;;;;22.00;30.78;97874.69;4862213;29;1043;-79
2022/07/25 09:57:12;;;;;;;;;;;;;;;21.75;31.31;97878.25;4862290;29;1005;-80
2022/07/25 09:59:38;;;;;;;;;;;;;;;21.79;31.29;97873.28;4862216;29;1089;-79
2022/07/25 10:02:26;;;;;;;;;;;;;;;21.79;31.23;97879.72;4845892;29;1352;-79
2022/07/25 10:04:55;;;;;;;;;;;;;;;21.69;30.99;97863.84;4805948;29;1911;-78
2022/07/25 10:07:20;;;;;;;;;;;;;;;21.72;31.11;97868.63;4807107;29;1022;-79
2022/07/25 10:09:49;;;;;;;;;;;;;;;21.85;30.74;97866.59;4807178;29;1029;-79
2022/07/25 10:12:17;;;;;;;;;;;;;;;21.70;30.99;97868.25;4807070;29;1038;-79
2022/07/25 10:14:51;;;;;;;;;;;;;;;21.71;30.75;97858.53;4807165;29;1124;-79
2022/07/25 10:17:20;;;;;;;;;;;;;;;21.76;30.62;97858.00;4806421;29;1900;-79
2022/07/25 10:19:46;;;;;;;;;;;;;;;21.71;31.10;97858.53;4805833;29;1618;-78
2022/07/25 10:22:12;;;;;;;;;;;;;;;21.55;31.27;97855.75;4774041;30;1094;-79
2022/07/25 10:24:38;;;;;;;;;;;;;;;21.57;31.09;97844.78;4789433;30;1911;-79
2022/07/25 10:27:07;;;;;;;;;;;;;;;21.67;30.87;97843.69;4788974;29;994;-79
2022/07/25 10:29:33;;;;;;;;;;;;;;;21.90;30.33;97844.63;4789050;30;1029;-79
2022/07/25 10:32:04;;;;;;;;;;;;;;;21.66;30.71;97825.13;4788754;30;1070;-79
2022/07/25 10:34:31;;;;;;;;;;;;;;;21.83;30.39;97826.59;4787959;29;1657;-79
2022/07/25 10:36:58;;;;;;;;;;;;;;;21.82;30.56;97830.69;4788953;30;1167;-79
2022/07/25 10:39:23;;;;;;;;;;;;;;;21.59;31.17;97828.13;4788613;29;1055;-79
2022/07/25 10:41:53;;;;;;;;;;;;;;;21.66;30.79;97816.63;4809376;29;1194;-79
2022/07/25 10:44:18;;;;;;;;;;;;;;;21.85;30.37;97821.28;4859696;29;1899;-78
2022/07/25 10:46:43;;;;;;;;;;;;;;;21.63;30.63;97814.69;4861677;29;935;-79
2022/07/25 10:49:16;;;;;;;;;;;;;;;21.77;30.48;97814.25;4846114;29;973;-79
2022/07/25 10:51:41;;;;;;;;;;;;;;;21.72;30.97;97817.66;4830656;29;964;-79
2022/07/25 10:54:16;;;;;;;;;;;;;;;21.80;30.48;97821.84;4876393;29;1282;-79
2022/07/25 10:56:57;;;;;;;;;;;;;;;21.63;31.02;97803.34;4880328;29;1447;-78
2022/07/25 10:59:30;;;;;;;;;;;;;;;21.59;30.97;97808.31;4864535;29;1363;-79
2022/07/25 11:01:56;;;;;;;;;;;;;;;21.85;30.60;97807.13;4842666;29;1522;-79
2022/07/25 11:04:21;;;;;;;;;;;;;;;21.79;30.60;97800.44;4842843;29;1903;-79
2022/07/25 11:06:46;;;;;;;;;;;;;;;21.79;30.70;97805.31;4842920;29;997;-79
2022/07/25 11:09:15;;;;;;;;;;;;;;;21.87;30.58;97805.91;4842791;29;1047;-79
2022/07/25 11:11:46;;;;;;;;;;;;;;;21.78;30.76;97798.84;4806467;29;959;-79
2022/07/25 11:14:15;;;;;;;;;;;;;;;21.84;30.77;97794.19;4764213;30;1359;-79
2022/07/25 11:16:41;;;;;;;;;;;;;;;22.02;30.54;97795.69;4764916;30;1455;-79
2022/07/25 11:19:14;;;;;;;;;;;;;;;21.71;30.86;97787.75;4751444;30;1681;-80
2022/07/25 11:21:46;;;;;;;;;;;;;;;21.70;31.12;97791.81;4752580;30;1791;-79
2022/07/25 11:24:12;;;;;;;;;;;;;;;21.79;31.01;97788.31;4752713;30;1008;-79
2022/07/25 11:26:44;;;;;;;;;;;;;;;21.82;30.71;97798.75;4737327;30;1911;-79
2022/07/25 11:29:16;;;;;;;;;;;;;;;21.62;31.06;97790.44;4751113;30;1467;-79
2022/07/25 11:31:42;;;;;;;;;;;;;;;21.88;30.48;97785.59;4752170;30;1364;-79
2022/07/25 11:34:07;;;;;;;;;;;;;;;21.98;30.56;97787.31;4770163;30;998;-79
2022/07/25 11:36:33;;;;;;;;;;;;;;;22.02;30.26;97784.34;4770425;30;1187;-79
2022/07/25 11:38:58;;;;;;;;;;;;;;;22.06;30.19;97785.03;4769949;30;1155;-79
2022/07/25 11:41:27;;;;;;;;;;;;;;;21.88;30.57;97779.16;4770504;30;1027;-78
2022/07/25 11:43:52;;;;;;;;;;;;;;;21.79;30.67;97777.78;4806258;29;1133;-79
2022/07/25 11:46:18;;;;;;;;;;;;;;;21.87;30.47;97766.25;4857648;29;1907;-79
2022/07/25 11:48:43;;;;;;;;;;;;;;;21.63;30.76;97769.38;4860785;29;1019;-78
2022/07/25 11:51:10;;;;;;;;;;;;;;;21.79;30.67;97782.66;4858151;29;1479;-79
2022/07/25 11:53:42;;;;;;;;;;;;;;;21.76;30.50;97787.19;4842221;29;1062;-80
2022/07/25 11:56:11;;;;;;;;;;;;;;;21.83;30.47;97783.34;4797774;29;1437;-78
2022/07/25 11:58:36;;;;;;;;;;;;;;;21.64;30.59;97782.28;4806151;29;996;-79
2022/07/25 12:01:09;;;;;;;;;;;;;;;21.54;30.90;97784.19;4787892;29;1053;-79
2022/07/25 12:03:36;;;;;;;;;;;;;;;21.62;30.57;97784.00;4769844;30;978;-79
2022/07/25 12:06:06;;;;;;;;;;;;;;;21.59;30.87;97792.13;4769566;30;1912;-79
2022/07/25 12:08:35;;;;;;;;;;;;;;;21.68;30.39;97785.81;4734857;30;1083;-79
2022/07/25 12:11:01;;;;;;;;;;;;;;;21.68;30.36;97777.31;4736154;30;1477;-79
2022/07/25 12:13:27;;;;;;;;;;;;;;;21.59;30.54;97786.47;4735092;30;1025;-79
2022/07/25 12:15:52;;;;;;;;;;;;;;;21.89;29.85;97787.19;4737658;30;1003;-79
2022/07/25 12:18:18;;;;;;;;;;;;;;;21.67;30.39;97772.91;4737969;30;1061;-79
2022/07/25 12:20:43;;;;;;;;;;;;;;;21.65;30.32;97772.53;4720192;30;976;-79
2022/07/25 12:23:10;;;;;;;;;;;;;;;21.77;30.17;97774.59;4704231;30;1040;-79
2022/07/25 12:25:38;;;;;;;;;;;;;;;21.67;30.44;97781.41;4718414;30;1908;-79
2022/07/25 12:28:04;;;;;;;;;;;;;;;21.76;30.14;97783.53;4735420;30;1691;-79
2022/07/25 12:30:30;;;;;;;;;;;;;;;21.89;29.78;97780.72;4738021;30;979;-79
2022/07/25 12:32:56;;;;;;;;;;;;;;;21.61;30.35;97774.72;4737483;30;993;-79
2022/07/25 12:35:21;;;;;;;;;;;;;;;21.70;29.98;97766.31;4736911;30;1208;-79
2022/07/25 12:37:47;;;;;;;;;;;;;;;21.45;30.63;97764.25;4755159;30;1005;-79
2022/07/25 12:40:12;;;;;;;;;;;;;;;21.57;30.29;97760.66;4760729;29;1035;-79
2022/07/25 12:42:38;;;;;;;;;;;;;;;21.42;30.44;97764.34;4790401;29;1464;-79
2022/07/25 12:45:03;;;;;;;;;;;;;;;21.50;30.50;97765.72;4795034;29;1896;-79
2022/07/25 12:47:29;;;;;;;;;;;;;;;21.69;30.13;97755.44;4840516;29;1073;-79
2022/07/25 12:49:54;;;;;;;;;;;;;;;21.59;30.57;97758.16;4845510;29;1175;-79
2022/07/25 12:52:20;;;;;;;;;;;;;;;21.58;30.63;97755.78;4874462;29;978;-79
2022/07/25 12:54:45;;;;;;;;;;;;;;;21.77;29.99;97742.66;4884456;29;956;-79
2022/07/25 12:57:11;;;;;;;;;;;;;;;21.68;30.20;97743.34;4883709;29;1804;-79